sensor_id;sensor_type;location;lat;lon;timestamp;pressure;altitude;pressure_sealevel;temperature;humidity
804;BME280;25687;49.976;8.240;2024-02-21T00:01:36;101021.72;;;7.56;100.00
804;BME280;25687;49.976;8.240;2024-02-21T00:04:02;101019.88;;;7.61;100.00
804;BME280;25687;49.976;8.240;2024-02-21T00:06:27;101011.03;;;7.71;100.00
804;BME280;25687;49.976;8.240;2024-02-21T00:08:52;101011.09;;;7.70;100.00
804;BME280;25687;49.976;8.240;2024-02-21T00:11:18;101005.03;;;7.72;100.00
804;BME280;25687;49.976;8.240;2024-02-21T00:13:43;101004.25;;;7.70;100.00
804;BME280;25687;49.976;8.240;2024-02-21T00:16:08;101000.19;;;7.63;100.00
804;BME280;25687;49.976;8.240;2024-02-21T00:18:35;100991.66;;;7.63;100.00
804;BME280;25687;49.976;8.240;2024-02-21T00:21:01;100992.69;;;7.57;100.00
804;BME280;25687;49.976;8.240;2024-02-21T00:23:27;100991.66;;;7.63;100.00
804;BME280;25687;49.976;8.240;2024-02-21T00:25:52;100992.56;;;7.62;100.00
804;BME280;25687;49.976;8.240;2024-02-21T00:28:17;100983.78;;;7.70;100.00
804;BME280;25687;49.976;8.240;2024-02-21T00:30:43;100988.22;;;7.64;100.00
804;BME280;25687;49.976;8.240;2024-02-21T00:33:08;100979.00;;;7.58;100.00
804;BME280;25687;49.976;8.240;2024-02-21T00:35:34;100966.28;;;7.55;100.00
804;BME280;25687;49.976;8.240;2024-02-21T00:37:59;100961.44;;;7.44;100.00
804;BME280;25687;49.976;8.240;2024-02-21T00:40:24;100959.19;;;7.33;100.00
804;BME280;25687;49.976;8.240;2024-02-21T00:42:50;100946.84;;;7.16;100.00
804;BME280;25687;49.976;8.240;2024-02-21T00:45:15;100943.31;;;7.22;100.00
804;BME280;25687;49.976;8.240;2024-02-21T00:47:40;100938.97;;;7.24;100.00
804;BME280;25687;49.976;8.240;2024-02-21T00:50:06;100937.16;;;7.27;100.00
804;BME280;25687;49.976;8.240;2024-02-21T00:52:32;100931.13;;;7.30;100.00
804;BME280;25687;49.976;8.240;2024-02-21T00:54:58;100926.50;;;7.11;100.00
804;BME280;25687;49.976;8.240;2024-02-21T00:57:23;100942.28;;;7.27;100.00
804;BME280;25687;49.976;8.240;2024-02-21T00:59:48;100951.59;;;7.30;100.00
804;BME280;25687;49.976;8.240;2024-02-21T01:02:14;100948.81;;;7.38;100.00
804;BME280;25687;49.976;8.240;2024-02-21T01:04:39;100956.41;;;7.41;100.00
804;BME280;25687;49.976;8.240;2024-02-21T01:07:04;100945.25;;;7.43;100.00
804;BME280;25687;49.976;8.240;2024-02-21T01:09:30;100941.53;;;7.55;100.00
804;BME280;25687;49.976;8.240;2024-02-21T01:11:55;100951.78;;;7.54;100.00
804;BME280;25687;49.976;8.240;2024-02-21T01:14:20;100960.94;;;7.63;100.00
804;BME280;25687;49.976;8.240;2024-02-21T01:16:45;100954.94;;;7.64;100.00
804;BME280;25687;49.976;8.240;2024-02-21T01:19:11;100955.06;;;7.59;100.00
804;BME280;25687;49.976;8.240;2024-02-21T01:21:36;100956.13;;;7.52;100.00
804;BME280;25687;49.976;8.240;2024-02-21T01:24:01;100954.09;;;7.32;100.00
804;BME280;25687;49.976;8.240;2024-02-21T01:26:27;100948.63;;;7.46;100.00
804;BME280;25687;49.976;8.240;2024-02-21T01:28:52;100941.88;;;7.43;100.00
804;BME280;25687;49.976;8.240;2024-02-21T01:31:17;100926.41;;;7.46;100.00
804;BME280;25687;49.976;8.240;2024-02-21T01:33:42;100929.59;;;7.54;100.00
804;BME280;25687;49.976;8.240;2024-02-21T01:36:08;100937.69;;;7.39;100.00
804;BME280;25687;49.976;8.240;2024-02-21T01:38:34;100927.16;;;7.50;100.00
804;BME280;25687;49.976;8.240;2024-02-21T01:40:59;100916.09;;;7.49;100.00
804;BME280;25687;49.976;8.240;2024-02-21T01:43:25;100920.81;;;7.33;100.00
804;BME280;25687;49.976;8.240;2024-02-21T01:45:52;100917.28;;;7.37;100.00
804;BME280;25687;49.976;8.240;2024-02-21T01:48:18;100907.84;;;7.39;100.00
804;BME280;25687;49.976;8.240;2024-02-21T01:50:47;100900.88;;;7.45;100.00
804;BME280;25687;49.976;8.240;2024-02-21T01:53:20;100908.59;;;7.43;100.00
804;BME280;25687;49.976;8.240;2024-02-21T01:55:46;100900.81;;;7.46;100.00
804;BME280;25687;49.976;8.240;2024-02-21T01:58:13;100886.28;;;7.47;100.00
804;BME280;25687;49.976;8.240;2024-02-21T02:00:41;100889.81;;;7.42;100.00
804;BME280;25687;49.976;8.240;2024-02-21T02:03:07;100878.78;;;7.40;100.00
804;BME280;25687;49.976;8.240;2024-02-21T02:05:35;100880.84;;;7.27;100.00
804;BME280;25687;49.976;8.240;2024-02-21T02:08:00;100882.59;;;7.25;100.00
804;BME280;25687;49.976;8.240;2024-02-21T02:10:25;100881.97;;;7.19;100.00
804;BME280;25687;49.976;8.240;2024-02-21T02:12:52;100880.41;;;7.13;100.00
804;BME280;25687;49.976;8.240;2024-02-21T02:15:17;100881.31;;;7.12;100.00
804;BME280;25687;49.976;8.240;2024-02-21T02:17:42;100882.34;;;7.05;100.00
804;BME280;25687;49.976;8.240;2024-02-21T02:20:08;100878.81;;;7.09;100.00
804;BME280;25687;49.976;8.240;2024-02-21T02:22:35;100875.50;;;7.05;100.00
804;BME280;25687;49.976;8.240;2024-02-21T02:25:03;100881.66;;;6.98;100.00
804;BME280;25687;49.976;8.240;2024-02-21T02:27:28;100875.75;;;6.96;100.00
804;BME280;25687;49.976;8.240;2024-02-21T02:29:54;100869.78;;;6.95;100.00
804;BME280;25687;49.976;8.240;2024-02-21T02:32:19;100866.47;;;6.92;100.00
804;BME280;25687;49.976;8.240;2024-02-21T02:34:44;100869.03;;;6.92;100.00
804;BME280;25687;49.976;8.240;2024-02-21T02:37:09;100855.38;;;6.93;100.00
804;BME280;25687;49.976;8.240;2024-02-21T02:39:35;100849.88;;;6.75;100.00
804;BME280;25687;49.976;8.240;2024-02-21T02:42:01;100845.28;;;6.55;100.00
804;BME280;25687;49.976;8.240;2024-02-21T02:44:27;100844.97;;;6.68;100.00
804;BME280;25687;49.976;8.240;2024-02-21T02:46:52;100854.94;;;6.77;100.00
804;BME280;25687;49.976;8.240;2024-02-21T02:49:17;100858.31;;;6.79;100.00
804;BME280;25687;49.976;8.240;2024-02-21T02:51:43;100858.78;;;6.92;100.00
804;BME280;25687;49.976;8.240;2024-02-21T02:54:08;100845.22;;;6.90;100.00
804;BME280;25687;49.976;8.240;2024-02-21T02:56:34;100839.25;;;6.91;100.00
804;BME280;25687;49.976;8.240;2024-02-21T02:58:59;100823.22;;;6.84;100.00
804;BME280;25687;49.976;8.240;2024-02-21T03:01:24;100832.50;;;6.87;100.00
804;BME280;25687;49.976;8.240;2024-02-21T03:03:49;100824.78;;;6.88;100.00
804;BME280;25687;49.976;8.240;2024-02-21T03:06:15;100832.41;;;6.91;100.00
804;BME280;25687;49.976;8.240;2024-02-21T03:08:40;100835.50;;;7.03;100.00
804;BME280;25687;49.976;8.240;2024-02-21T03:11:05;100828.63;;;7.05;100.00
804;BME280;25687;49.976;8.240;2024-02-21T03:13:30;100824.31;;;7.05;100.00
804;BME280;25687;49.976;8.240;2024-02-21T03:15:56;100819.50;;;6.96;100.00
804;BME280;25687;49.976;8.240;2024-02-21T03:18:21;100826.13;;;7.03;100.00
804;BME280;25687;49.976;8.240;2024-02-21T03:20:46;100818.25;;;7.09;100.00
804;BME280;25687;49.976;8.240;2024-02-21T03:23:11;100802.88;;;7.11;100.00
804;BME280;25687;49.976;8.240;2024-02-21T03:25:37;100801.69;;;6.91;100.00
804;BME280;25687;49.976;8.240;2024-02-21T03:28:02;100789.75;;;6.92;100.00
804;BME280;25687;49.976;8.240;2024-02-21T03:30:28;100788.97;;;6.90;100.00
804;BME280;25687;49.976;8.240;2024-02-21T03:32:53;100777.34;;;7.09;100.00
804;BME280;25687;49.976;8.240;2024-02-21T03:35:19;100780.66;;;7.11;100.00
804;BME280;25687;49.976;8.240;2024-02-21T03:37:45;100780.66;;;7.11;100.00
804;BME280;25687;49.976;8.240;2024-02-21T03:40:10;100784.94;;;7.11;100.00
804;BME280;25687;49.976;8.240;2024-02-21T03:42:36;100778.09;;;7.11;100.00
804;BME280;25687;49.976;8.240;2024-02-21T03:45:02;100776.94;;;6.92;100.00
804;BME280;25687;49.976;8.240;2024-02-21T03:47:28;100784.44;;;6.98;100.00
804;BME280;25687;49.976;8.240;2024-02-21T03:49:54;100793.97;;;6.93;100.00
804;BME280;25687;49.976;8.240;2024-02-21T03:52:19;100799.69;;;7.03;100.00
804;BME280;25687;49.976;8.240;2024-02-21T03:54:44;100805.81;;;6.97;100.00
804;BME280;25687;49.976;8.240;2024-02-21T03:57:10;100809.16;;;6.99;100.00
804;BME280;25687;49.976;8.240;2024-02-21T03:59:35;100805.19;;;6.89;100.00
804;BME280;25687;49.976;8.240;2024-02-21T04:02:00;100798.75;;;7.05;100.00
804;BME280;25687;49.976;8.240;2024-02-21T04:04:25;100791.19;;;7.01;100.00
804;BME280;25687;49.976;8.240;2024-02-21T04:06:51;100789.97;;;7.14;100.00
804;BME280;25687;49.976;8.240;2024-02-21T04:09:16;100785.66;;;7.16;100.00
804;BME280;25687;49.976;8.240;2024-02-21T04:11:42;100782.09;;;7.22;100.00
804;BME280;25687;49.976;8.240;2024-02-21T04:14:08;100771.13;;;7.17;100.00
804;BME280;25687;49.976;8.240;2024-02-21T04:16:34;100760.06;;;7.16;100.00
804;BME280;25687;49.976;8.240;2024-02-21T04:18:59;100764.75;;;7.02;100.00
804;BME280;25687;49.976;8.240;2024-02-21T04:21:26;100771.63;;;7.00;100.00
804;BME280;25687;49.976;8.240;2024-02-21T04:23:51;100774.41;;;6.92;100.00
804;BME280;25687;49.976;8.240;2024-02-21T04:26:16;100776.88;;;6.95;100.00
804;BME280;25687;49.976;8.240;2024-02-21T04:28:42;100772.94;;;7.13;100.00
804;BME280;25687;49.976;8.240;2024-02-21T04:31:07;100770.25;;;7.18;100.00
804;BME280;25687;49.976;8.240;2024-02-21T04:33:32;100765.69;;;7.27;100.00
804;BME280;25687;49.976;8.240;2024-02-21T04:35:57;100754.75;;;7.22;100.00
804;BME280;25687;49.976;8.240;2024-02-21T04:38:23;100749.78;;;7.18;100.00
804;BME280;25687;49.976;8.240;2024-02-21T04:40:49;100735.50;;;7.10;100.00
804;BME280;25687;49.976;8.240;2024-02-21T04:43:14;100732.38;;;7.01;100.00
804;BME280;25687;49.976;8.240;2024-02-21T04:45:39;100739.09;;;7.05;100.00
804;BME280;25687;49.976;8.240;2024-02-21T04:48:05;100733.16;;;7.03;100.00
804;BME280;25687;49.976;8.240;2024-02-21T04:50:30;100723.06;;;6.98;100.00
804;BME280;25687;49.976;8.240;2024-02-21T04:52:55;100719.22;;;6.85;100.00
804;BME280;25687;49.976;8.240;2024-02-21T04:55:20;100725.03;;;6.90;100.00
804;BME280;25687;49.976;8.240;2024-02-21T04:57:45;100719.09;;;6.88;100.00
804;BME280;25687;49.976;8.240;2024-02-21T05:00:11;100724.41;;;6.82;100.00
804;BME280;25687;49.976;8.240;2024-02-21T05:02:36;100722.50;;;6.88;100.00
804;BME280;25687;49.976;8.240;2024-02-21T05:05:02;100719.91;;;6.90;100.00
804;BME280;25687;49.976;8.240;2024-02-21T05:07:27;100729.63;;;6.77;100.00
804;BME280;25687;49.976;8.240;2024-02-21T05:09:53;100727.88;;;6.79;100.00
804;BME280;25687;49.976;8.240;2024-02-21T05:12:18;100715.06;;;6.81;100.00
804;BME280;25687;49.976;8.240;2024-02-21T05:14:43;100724.00;;;6.66;100.00
804;BME280;25687;49.976;8.240;2024-02-21T05:17:09;100719.63;;;6.69;100.00
804;BME280;25687;49.976;8.240;2024-02-21T05:19:34;100725.47;;;6.74;100.00
804;BME280;25687;49.976;8.240;2024-02-21T05:21:59;100720.09;;;6.84;100.00
804;BME280;25687;49.976;8.240;2024-02-21T05:24:25;100736.06;;;6.60;100.00
804;BME280;25687;49.976;8.240;2024-02-21T05:26:51;100732.13;;;6.80;100.00
804;BME280;25687;49.976;8.240;2024-02-21T05:29:16;100724.09;;;6.92;100.00
804;BME280;25687;49.976;8.240;2024-02-21T05:34:15;100720.44;;;7.01;100.00
804;BME280;25687;49.976;8.240;2024-02-21T05:36:41;100721.53;;;6.92;100.00
804;BME280;25687;49.976;8.240;2024-02-21T05:39:06;100722.78;;;6.79;100.00
804;BME280;25687;49.976;8.240;2024-02-21T05:41:31;100717.00;;;6.72;100.00
804;BME280;25687;49.976;8.240;2024-02-21T05:43:56;100716.09;;;6.73;100.00
804;BME280;25687;49.976;8.240;2024-02-21T05:46:22;100700.13;;;6.67;100.00
804;BME280;25687;49.976;8.240;2024-02-21T05:48:47;100705.56;;;6.54;100.00
804;BME280;25687;49.976;8.240;2024-02-21T05:51:12;100693.94;;;6.44;100.00
804;BME280;25687;49.976;8.240;2024-02-21T05:53:37;100702.00;;;6.28;100.00
804;BME280;25687;49.976;8.240;2024-02-21T05:56:10;100699.91;;;6.11;100.00
804;BME280;25687;49.976;8.240;2024-02-21T05:58:36;100704.78;;;6.21;100.00
804;BME280;25687;49.976;8.240;2024-02-21T06:01:01;100709.25;;;6.12;100.00
804;BME280;25687;49.976;8.240;2024-02-21T06:03:29;100702.63;;;6.05;100.00
804;BME280;25687;49.976;8.240;2024-02-21T06:05:54;100690.19;;;5.91;100.00
804;BME280;25687;49.976;8.240;2024-02-21T06:08:19;100683.28;;;5.95;100.00
804;BME280;25687;49.976;8.240;2024-02-21T06:10:45;100684.72;;;6.05;100.00
804;BME280;25687;49.976;8.240;2024-02-21T06:13:10;100689.97;;;6.01;100.00
804;BME280;25687;49.976;8.240;2024-02-21T06:15:35;100691.84;;;5.92;100.00
804;BME280;25687;49.976;8.240;2024-02-21T06:18:01;100704.50;;;5.97;100.00
804;BME280;25687;49.976;8.240;2024-02-21T06:20:26;100700.53;;;5.87;100.00
804;BME280;25687;49.976;8.240;2024-02-21T06:22:51;100695.16;;;5.96;100.00
804;BME280;25687;49.976;8.240;2024-02-21T06:25:17;100689.94;;;6.02;100.00
804;BME280;25687;49.976;8.240;2024-02-21T06:27:42;100674.75;;;5.96;100.00
804;BME280;25687;49.976;8.240;2024-02-21T06:30:08;100681.53;;;5.97;100.00
804;BME280;25687;49.976;8.240;2024-02-21T06:32:34;100669.03;;;5.86;100.00
804;BME280;25687;49.976;8.240;2024-02-21T06:34:59;100663.81;;;5.91;100.00
804;BME280;25687;49.976;8.240;2024-02-21T06:37:26;100663.94;;;5.86;100.00
804;BME280;25687;49.976;8.240;2024-02-21T06:39:52;100662.38;;;5.80;100.00
804;BME280;25687;49.976;8.240;2024-02-21T06:42:17;100662.09;;;5.91;100.00
804;BME280;25687;49.976;8.240;2024-02-21T06:44:44;100656.81;;;5.99;100.00
804;BME280;25687;49.976;8.240;2024-02-21T06:47:09;100668.69;;;6.00;100.00
804;BME280;25687;49.976;8.240;2024-02-21T06:49:34;100670.22;;;6.07;100.00
804;BME280;25687;49.976;8.240;2024-02-21T06:52:00;100669.94;;;6.18;100.00
804;BME280;25687;49.976;8.240;2024-02-21T06:54:25;100675.69;;;6.26;100.00
804;BME280;25687;49.976;8.240;2024-02-21T06:56:50;100670.19;;;6.40;100.00
804;BME280;25687;49.976;8.240;2024-02-21T06:59:15;100668.34;;;6.45;100.00
804;BME280;25687;49.976;8.240;2024-02-21T07:01:54;100662.75;;;6.33;100.00
804;BME280;25687;49.976;8.240;2024-02-21T07:04:20;100658.34;;;6.36;100.00
804;BME280;25687;49.976;8.240;2024-02-21T07:06:45;100663.91;;;6.51;100.00
804;BME280;25687;49.976;8.240;2024-02-21T07:09:11;100662.69;;;6.64;100.00
804;BME280;25687;49.976;8.240;2024-02-21T07:11:36;100656.34;;;6.77;100.00
804;BME280;25687;49.976;8.240;2024-02-21T07:14:01;100658.38;;;6.66;100.00
804;BME280;25687;49.976;8.240;2024-02-21T07:16:26;100663.84;;;6.82;100.00
804;BME280;25687;49.976;8.240;2024-02-21T07:18:54;100667.84;;;6.92;100.00
804;BME280;25687;49.976;8.240;2024-02-21T07:21:19;100666.47;;;7.09;100.00
804;BME280;25687;49.976;8.240;2024-02-21T07:23:45;100664.59;;;7.14;100.00
804;BME280;25687;49.976;8.240;2024-02-21T07:26:10;100670.13;;;7.55;100.00
804;BME280;25687;49.976;8.240;2024-02-21T07:28:35;100676.34;;;7.48;100.00
804;BME280;25687;49.976;8.240;2024-02-21T07:31:01;100671.03;;;7.54;100.00
804;BME280;25687;49.976;8.240;2024-02-21T07:33:26;100659.91;;;7.81;100.00
804;BME280;25687;49.976;8.240;2024-02-21T07:35:51;100661.31;;;7.89;100.00
804;BME280;25687;49.976;8.240;2024-02-21T07:38:16;100664.78;;;8.12;100.00
804;BME280;25687;49.976;8.240;2024-02-21T07:40:44;100655.38;;;8.13;100.00
804;BME280;25687;49.976;8.240;2024-02-21T07:43:10;100647.94;;;8.30;100.00
804;BME280;25687;49.976;8.240;2024-02-21T07:45:35;100662.75;;;8.46;100.00
804;BME280;25687;49.976;8.240;2024-02-21T07:48:01;100656.06;;;8.42;100.00
804;BME280;25687;49.976;8.240;2024-02-21T07:50:26;100650.94;;;8.42;100.00
804;BME280;25687;49.976;8.240;2024-02-21T07:52:51;100649.50;;;8.58;100.00
804;BME280;25687;49.976;8.240;2024-02-21T07:55:17;100632.19;;;8.63;100.00
804;BME280;25687;49.976;8.240;2024-02-21T07:57:42;100638.34;;;8.35;100.00
804;BME280;25687;49.976;8.240;2024-02-21T08:00:08;100632.03;;;8.44;100.00
804;BME280;25687;49.976;8.240;2024-02-21T08:02:42;100629.41;;;8.46;100.00
804;BME280;25687;49.976;8.240;2024-02-21T08:05:09;100633.78;;;8.44;100.00
804;BME280;25687;49.976;8.240;2024-02-21T08:07:34;100642.81;;;8.54;100.00
804;BME280;25687;49.976;8.240;2024-02-21T08:09:59;100633.38;;;8.54;100.00
804;BME280;25687;49.976;8.240;2024-02-21T08:12:24;100628.22;;;8.32;100.00
804;BME280;25687;49.976;8.240;2024-02-21T08:14:50;100624.72;;;8.59;100.00
804;BME280;25687;49.976;8.240;2024-02-21T08:17:15;100622.81;;;8.86;100.00
804;BME280;25687;49.976;8.240;2024-02-21T08:19:40;100622.97;;;8.59;100.00
804;BME280;25687;49.976;8.240;2024-02-21T08:22:05;100607.81;;;8.53;100.00
804;BME280;25687;49.976;8.240;2024-02-21T08:24:31;100610.22;;;8.58;100.00
804;BME280;25687;49.976;8.240;2024-02-21T08:26:57;100604.84;;;8.86;100.00
804;BME280;25687;49.976;8.240;2024-02-21T08:29:22;100605.63;;;8.66;100.00
804;BME280;25687;49.976;8.240;2024-02-21T08:31:48;100605.03;;;8.81;100.00
804;BME280;25687;49.976;8.240;2024-02-21T08:34:13;100605.56;;;8.90;100.00
804;BME280;25687;49.976;8.240;2024-02-21T08:36:38;100603.69;;;9.15;100.00
804;BME280;25687;49.976;8.240;2024-02-21T08:39:04;100609.25;;;9.04;100.00
804;BME280;25687;49.976;8.240;2024-02-21T08:41:32;100602.56;;;9.00;100.00
804;BME280;25687;49.976;8.240;2024-02-21T08:43:58;100604.44;;;8.97;100.00
804;BME280;25687;49.976;8.240;2024-02-21T08:46:24;100605.31;;;9.18;100.00
804;BME280;25687;49.976;8.240;2024-02-21T08:48:53;100608.19;;;9.31;100.00
804;BME280;25687;49.976;8.240;2024-02-21T08:51:19;100591.78;;;9.75;100.00
804;BME280;25687;49.976;8.240;2024-02-21T08:53:45;100593.75;;;9.49;100.00
804;BME280;25687;49.976;8.240;2024-02-21T08:56:10;100594.22;;;9.38;100.00
804;BME280;25687;49.976;8.240;2024-02-21T08:58:36;100583.59;;;9.46;100.00
804;BME280;25687;49.976;8.240;2024-02-21T09:01:03;100576.53;;;9.72;100.00
804;BME280;25687;49.976;8.240;2024-02-21T09:03:35;100566.84;;;10.16;100.00
804;BME280;25687;49.976;8.240;2024-02-21T09:06:01;100558.66;;;10.46;100.00
804;BME280;25687;49.976;8.240;2024-02-21T09:08:26;100562.41;;;10.39;100.00
804;BME280;25687;49.976;8.240;2024-02-21T09:10:52;100556.84;;;10.48;100.00
804;BME280;25687;49.976;8.240;2024-02-21T09:13:17;100563.69;;;10.67;100.00
804;BME280;25687;49.976;8.240;2024-02-21T09:15:43;100560.84;;;10.91;100.00
804;BME280;25687;49.976;8.240;2024-02-21T09:18:08;100556.22;;;10.97;100.00
804;BME280;25687;49.976;8.240;2024-02-21T09:20:33;100561.16;;;11.02;100.00
804;BME280;25687;49.976;8.240;2024-02-21T09:22:58;100545.84;;;11.34;100.00
804;BME280;25687;49.976;8.240;2024-02-21T09:25:24;100541.59;;;11.33;100.00
804;BME280;25687;49.976;8.240;2024-02-21T09:27:49;100533.81;;;11.84;100.00
804;BME280;25687;49.976;8.240;2024-02-21T09:30:16;100526.59;;;11.75;100.00
804;BME280;25687;49.976;8.240;2024-02-21T09:32:42;100542.28;;;12.36;100.00
804;BME280;25687;49.976;8.240;2024-02-21T09:35:07;100535.38;;;12.20;97.26
804;BME280;25687;49.976;8.240;2024-02-21T09:37:32;100539.13;;;12.47;97.10
804;BME280;25687;49.976;8.240;2024-02-21T09:39:58;100534.22;;;12.10;99.23
804;BME280;25687;49.976;8.240;2024-02-21T09:42:32;100528.16;;;12.11;98.67
804;BME280;25687;49.976;8.240;2024-02-21T09:45:03;100532.50;;;11.93;98.08
804;BME280;25687;49.976;8.240;2024-02-21T09:50:24;100524.91;;;12.39;98.52
804;BME280;25687;49.976;8.240;2024-02-21T09:52:51;100516.56;;;12.50;97.20
804;BME280;25687;49.976;8.240;2024-02-21T09:55:17;100518.78;;;12.87;95.49
804;BME280;25687;49.976;8.240;2024-02-21T09:57:44;100509.44;;;12.70;94.72
804;BME280;25687;49.976;8.240;2024-02-21T10:00:09;100507.50;;;13.04;95.29
804;BME280;25687;49.976;8.240;2024-02-21T10:02:35;100501.00;;;12.36;95.67
804;BME280;25687;49.976;8.240;2024-02-21T10:05:00;100503.56;;;12.82;97.30
804;BME280;25687;49.976;8.240;2024-02-21T10:07:26;100506.97;;;12.52;96.86
804;BME280;25687;49.976;8.240;2024-02-21T10:10:04;100501.53;;;12.87;92.85
804;BME280;25687;49.976;8.240;2024-02-21T10:12:29;100504.94;;;13.91;86.48
804;BME280;25687;49.976;8.240;2024-02-21T10:15:05;100498.75;;;13.06;87.77
804;BME280;25687;49.976;8.240;2024-02-21T10:17:34;100500.09;;;12.53;95.42
804;BME280;25687;49.976;8.240;2024-02-21T10:20:09;100500.09;;;12.37;97.00
804;BME280;25687;49.976;8.240;2024-02-21T10:22:35;100494.38;;;12.16;100.00
804;BME280;25687;49.976;8.240;2024-02-21T10:25:12;100492.41;;;11.71;100.00
804;BME280;25687;49.976;8.240;2024-02-21T10:27:38;100479.81;;;12.15;100.00
804;BME280;25687;49.976;8.240;2024-02-21T10:30:12;100473.00;;;11.98;100.00
804;BME280;25687;49.976;8.240;2024-02-21T10:32:49;100474.38;;;11.71;100.00
804;BME280;25687;49.976;8.240;2024-02-21T10:35:28;100467.84;;;11.48;100.00
804;BME280;25687;49.976;8.240;2024-02-21T10:37:55;100462.53;;;11.35;100.00
804;BME280;25687;49.976;8.240;2024-02-21T10:40:28;100456.16;;;11.42;100.00
804;BME280;25687;49.976;8.240;2024-02-21T10:42:58;100456.09;;;11.76;100.00
804;BME280;25687;49.976;8.240;2024-02-21T10:45:32;100456.72;;;11.97;100.00
804;BME280;25687;49.976;8.240;2024-02-21T10:48:10;100445.22;;;12.03;100.00
804;BME280;25687;49.976;8.240;2024-02-21T10:53:57;100440.69;;;11.58;100.00
804;BME280;25687;49.976;8.240;2024-02-21T10:56:30;100441.69;;;11.88;100.00
804;BME280;25687;49.976;8.240;2024-02-21T10:59:00;100441.34;;;11.62;100.00
804;BME280;25687;49.976;8.240;2024-02-21T11:01:26;100435.53;;;11.58;100.00
804;BME280;25687;49.976;8.240;2024-02-21T11:03:55;100422.50;;;11.61;100.00
804;BME280;25687;49.976;8.240;2024-02-21T11:06:21;100429.34;;;11.78;100.00
804;BME280;25687;49.976;8.240;2024-02-21T11:08:47;100427.31;;;11.52;100.00
804;BME280;25687;49.976;8.240;2024-02-21T11:11:23;100422.97;;;11.20;100.00
804;BME280;25687;49.976;8.240;2024-02-21T11:13:49;100421.84;;;11.58;100.00
804;BME280;25687;49.976;8.240;2024-02-21T11:16:22;100415.16;;;11.38;100.00
804;BME280;25687;49.976;8.240;2024-02-21T11:18:48;100411.28;;;11.46;100.00
804;BME280;25687;49.976;8.240;2024-02-21T11:21:13;100397.31;;;11.67;100.00
804;BME280;25687;49.976;8.240;2024-02-21T11:23:38;100398.41;;;11.78;100.00
804;BME280;25687;49.976;8.240;2024-02-21T11:26:19;100396.88;;;11.74;100.00
804;BME280;25687;49.976;8.240;2024-02-21T11:28:44;100392.81;;;11.54;100.00
804;BME280;25687;49.976;8.240;2024-02-21T11:31:13;100384.84;;;11.59;100.00
804;BME280;25687;49.976;8.240;2024-02-21T11:33:42;100377.03;;;11.76;100.00
804;BME280;25687;49.976;8.240;2024-02-21T11:36:23;100374.78;;;11.70;100.00
804;BME280;25687;49.976;8.240;2024-02-21T11:38:51;100367.88;;;11.71;100.00
804;BME280;25687;49.976;8.240;2024-02-21T11:41:18;100364.47;;;11.38;100.00
804;BME280;25687;49.976;8.240;2024-02-21T11:43:44;100367.38;;;11.32;100.00
804;BME280;25687;49.976;8.240;2024-02-21T11:46:09;100354.84;;;11.26;100.00
804;BME280;25687;49.976;8.240;2024-02-21T11:48:34;100357.84;;;11.34;100.00
804;BME280;25687;49.976;8.240;2024-02-21T11:51:00;100351.03;;;11.33;100.00
804;BME280;25687;49.976;8.240;2024-02-21T11:53:26;100345.34;;;11.58;100.00
804;BME280;25687;49.976;8.240;2024-02-21T11:55:56;100339.69;;;11.84;100.00
804;BME280;25687;49.976;8.240;2024-02-21T11:58:24;100327.41;;;11.73;100.00
804;BME280;25687;49.976;8.240;2024-02-21T12:00:50;100329.63;;;11.79;100.00
804;BME280;25687;49.976;8.240;2024-02-21T12:03:15;100324.50;;;11.47;100.00
804;BME280;25687;49.976;8.240;2024-02-21T12:05:41;100317.28;;;11.70;100.00
804;BME280;25687;49.976;8.240;2024-02-21T12:08:06;100301.22;;;11.65;100.00
804;BME280;25687;49.976;8.240;2024-02-21T12:10:32;100298.56;;;11.66;100.00
804;BME280;25687;49.976;8.240;2024-02-21T12:13:06;100295.34;;;11.46;100.00
804;BME280;25687;49.976;8.240;2024-02-21T12:15:32;100285.97;;;11.45;100.00
804;BME280;25687;49.976;8.240;2024-02-21T12:17:57;100283.81;;;11.54;100.00
804;BME280;25687;49.976;8.240;2024-02-21T12:20:22;100281.53;;;11.63;100.00
804;BME280;25687;49.976;8.240;2024-02-21T12:22:49;100276.06;;;11.84;100.00
804;BME280;25687;49.976;8.240;2024-02-21T12:25:19;100258.59;;;11.89;100.00
804;BME280;25687;49.976;8.240;2024-02-21T12:27:45;100257.50;;;11.63;100.00
804;BME280;25687;49.976;8.240;2024-02-21T12:30:11;100254.59;;;11.69;100.00
804;BME280;25687;49.976;8.240;2024-02-21T12:32:37;100256.72;;;11.77;100.00
804;BME280;25687;49.976;8.240;2024-02-21T12:35:02;100250.31;;;11.54;100.00
804;BME280;25687;49.976;8.240;2024-02-21T12:37:28;100243.84;;;11.77;100.00
804;BME280;25687;49.976;8.240;2024-02-21T12:39:54;100233.50;;;11.62;100.00
804;BME280;25687;49.976;8.240;2024-02-21T12:42:19;100226.22;;;11.55;100.00
804;BME280;25687;49.976;8.240;2024-02-21T12:44:44;100227.81;;;11.41;100.00
804;BME280;25687;49.976;8.240;2024-02-21T12:47:10;100221.66;;;11.74;100.00
804;BME280;25687;49.976;8.240;2024-02-21T12:49:35;100220.03;;;11.27;100.00
804;BME280;25687;49.976;8.240;2024-02-21T12:52:01;100228.41;;;11.14;100.00
804;BME280;25687;49.976;8.240;2024-02-21T12:54:26;100225.94;;;11.29;100.00
804;BME280;25687;49.976;8.240;2024-02-21T12:56:51;100211.03;;;11.34;100.00
804;BME280;25687;49.976;8.240;2024-02-21T12:59:17;100210.41;;;11.14;100.00
804;BME280;25687;49.976;8.240;2024-02-21T13:01:42;100204.44;;;11.14;100.00
804;BME280;25687;49.976;8.240;2024-02-21T13:04:07;100185.41;;;11.17;100.00
804;BME280;25687;49.976;8.240;2024-02-21T13:06:32;100173.06;;;11.38;100.00
804;BME280;25687;49.976;8.240;2024-02-21T13:08:58;100169.22;;;11.14;100.00
804;BME280;25687;49.976;8.240;2024-02-21T13:11:24;100177.31;;;11.39;100.00